sensor_id;sensor_type;location;lat;lon;timestamp;P1;durP1;ratioP1;P2;durP2;ratioP2
3573;SDS011;1801;51.050;6.246;2022-08-19T00:01:30;20.50;;;14.20;;
3573;SDS011;1801;51.050;6.246;2022-08-19T00:03:59;18.83;;;14.03;;
3573;SDS011;1801;51.050;6.246;2022-08-19T00:06:25;21.10;;;14.47;;
3573;SDS011;1801;51.050;6.246;2022-08-19T00:08:50;21.07;;;13.70;;
3573;SDS011;1801;51.050;6.246;2022-08-19T00:11:16;17.23;;;11.70;;
3573;SDS011;1801;51.050;6.246;2022-08-19T00:13:41;19.93;;;13.90;;
3573;SDS011;1801;51.050;6.246;2022-08-19T00:16:07;19.80;;;14.20;;
3573;SDS011;1801;51.050;6.246;2022-08-19T00:18:32;18.97;;;14.30;;
3573;SDS011;1801;51.050;6.246;2022-08-19T00:20:58;20.20;;;13.77;;
3573;SDS011;1801;51.050;6.246;2022-08-19T00:23:24;25.33;;;14.67;;
3573;SDS011;1801;51.050;6.246;2022-08-19T00:25:49;21.33;;;13.90;;
3573;SDS011;1801;51.050;6.246;2022-08-19T00:28:15;18.90;;;14.03;;
3573;SDS011;1801;51.050;6.246;2022-08-19T00:30:40;26.63;;;15.00;;
3573;SDS011;1801;51.050;6.246;2022-08-19T00:33:05;26.03;;;16.27;;
3573;SDS011;1801;51.050;6.246;2022-08-19T00:35:32;24.80;;;16.53;;
3573;SDS011;1801;51.050;6.246;2022-08-19T00:37:58;27.60;;;17.80;;
3573;SDS011;1801;51.050;6.246;2022-08-19T00:40:24;28.07;;;17.60;;
3573;SDS011;1801;51.050;6.246;2022-08-19T00:42:50;26.40;;;17.00;;
3573;SDS011;1801;51.050;6.246;2022-08-19T00:45:19;26.00;;;17.17;;
3573;SDS011;1801;51.050;6.246;2022-08-19T00:47:45;27.10;;;17.80;;
3573;SDS011;1801;51.050;6.246;2022-08-19T00:50:12;27.53;;;18.60;;
3573;SDS011;1801;51.050;6.246;2022-08-19T00:52:38;24.57;;;17.03;;
3573;SDS011;1801;51.050;6.246;2022-08-19T00:55:06;27.93;;;17.40;;
3573;SDS011;1801;51.050;6.246;2022-08-19T00:57:37;29.43;;;17.37;;
3573;SDS011;1801;51.050;6.246;2022-08-19T01:00:05;29.30;;;17.17;;
3573;SDS011;1801;51.050;6.246;2022-08-19T01:02:31;26.83;;;18.13;;
3573;SDS011;1801;51.050;6.246;2022-08-19T01:04:57;24.47;;;17.60;;
3573;SDS011;1801;51.050;6.246;2022-08-19T01:07:22;24.90;;;17.50;;
3573;SDS011;1801;51.050;6.246;2022-08-19T01:09:47;31.00;;;19.37;;
3573;SDS011;1801;51.050;6.246;2022-08-19T01:12:13;32.20;;;17.70;;
3573;SDS011;1801;51.050;6.246;2022-08-19T01:14:39;23.40;;;16.70;;
3573;SDS011;1801;51.050;6.246;2022-08-19T01:17:04;25.07;;;17.50;;
3573;SDS011;1801;51.050;6.246;2022-08-19T01:19:32;31.50;;;19.53;;
3573;SDS011;1801;51.050;6.246;2022-08-19T01:22:01;31.23;;;17.77;;
3573;SDS011;1801;51.050;6.246;2022-08-19T01:24:27;28.20;;;18.60;;
3573;SDS011;1801;51.050;6.246;2022-08-19T01:26:53;34.90;;;18.60;;
3573;SDS011;1801;51.050;6.246;2022-08-19T01:29:19;33.27;;;20.27;;
3573;SDS011;1801;51.050;6.246;2022-08-19T01:31:44;32.40;;;20.40;;
3573;SDS011;1801;51.050;6.246;2022-08-19T01:34:09;34.67;;;21.23;;
3573;SDS011;1801;51.050;6.246;2022-08-19T01:36:36;36.20;;;21.73;;
3573;SDS011;1801;51.050;6.246;2022-08-19T01:39:04;37.73;;;24.27;;
3573;SDS011;1801;51.050;6.246;2022-08-19T01:41:29;36.50;;;21.07;;
3573;SDS011;1801;51.050;6.246;2022-08-19T01:43:55;35.87;;;21.90;;
3573;SDS011;1801;51.050;6.246;2022-08-19T01:46:21;41.77;;;24.27;;
3573;SDS011;1801;51.050;6.246;2022-08-19T01:48:46;42.13;;;26.10;;
3573;SDS011;1801;51.050;6.246;2022-08-19T01:51:12;43.37;;;25.80;;
3573;SDS011;1801;51.050;6.246;2022-08-19T01:53:38;40.83;;;24.27;;
3573;SDS011;1801;51.050;6.246;2022-08-19T01:56:04;43.50;;;26.43;;
3573;SDS011;1801;51.050;6.246;2022-08-19T01:58:32;44.63;;;26.47;;
3573;SDS011;1801;51.050;6.246;2022-08-19T02:01:01;45.73;;;26.70;;
3573;SDS011;1801;51.050;6.246;2022-08-19T02:03:26;51.50;;;29.47;;
3573;SDS011;1801;51.050;6.246;2022-08-19T02:05:55;45.67;;;27.40;;
3573;SDS011;1801;51.050;6.246;2022-08-19T02:08:21;48.70;;;27.53;;
3573;SDS011;1801;51.050;6.246;2022-08-19T02:10:46;45.80;;;27.30;;
3573;SDS011;1801;51.050;6.246;2022-08-19T02:13:12;50.53;;;27.70;;
3573;SDS011;1801;51.050;6.246;2022-08-19T02:15:38;47.40;;;27.53;;
3573;SDS011;1801;51.050;6.246;2022-08-19T02:18:03;44.50;;;26.70;;
3573;SDS011;1801;51.050;6.246;2022-08-19T02:20:28;55.43;;;29.77;;
3573;SDS011;1801;51.050;6.246;2022-08-19T02:22:53;49.67;;;28.70;;
3573;SDS011;1801;51.050;6.246;2022-08-19T02:25:19;50.87;;;30.07;;
3573;SDS011;1801;51.050;6.246;2022-08-19T02:27:44;48.10;;;27.47;;
3573;SDS011;1801;51.050;6.246;2022-08-19T02:30:13;53.07;;;29.97;;
3573;SDS011;1801;51.050;6.246;2022-08-19T02:32:40;48.63;;;29.50;;
3573;SDS011;1801;51.050;6.246;2022-08-19T02:35:06;55.00;;;31.10;;
3573;SDS011;1801;51.050;6.246;2022-08-19T02:37:32;56.40;;;31.73;;
3573;SDS011;1801;51.050;6.246;2022-08-19T02:40:16;62.63;;;33.43;;
3573;SDS011;1801;51.050;6.246;2022-08-19T02:42:42;59.67;;;33.00;;
3573;SDS011;1801;51.050;6.246;2022-08-19T02:45:08;58.80;;;33.07;;
3573;SDS011;1801;51.050;6.246;2022-08-19T02:47:34;58.20;;;33.70;;
3573;SDS011;1801;51.050;6.246;2022-08-19T02:50:00;59.80;;;32.70;;
3573;SDS011;1801;51.050;6.246;2022-08-19T02:52:25;73.93;;;37.00;;
3573;SDS011;1801;51.050;6.246;2022-08-19T02:54:52;66.97;;;36.30;;
3573;SDS011;1801;51.050;6.246;2022-08-19T02:57:17;67.50;;;35.37;;
3573;SDS011;1801;51.050;6.246;2022-08-19T02:59:42;61.40;;;34.77;;
3573;SDS011;1801;51.050;6.246;2022-08-19T03:02:08;80.83;;;37.77;;
3573;SDS011;1801;51.050;6.246;2022-08-19T03:04:33;70.43;;;37.47;;
3573;SDS011;1801;51.050;6.246;2022-08-19T03:06:58;75.70;;;38.43;;
3573;SDS011;1801;51.050;6.246;2022-08-19T03:09:23;77.20;;;37.30;;
3573;SDS011;1801;51.050;6.246;2022-08-19T03:11:48;74.90;;;38.87;;
3573;SDS011;1801;51.050;6.246;2022-08-19T03:14:14;85.80;;;40.80;;
3573;SDS011;1801;51.050;6.246;2022-08-19T03:16:41;82.53;;;41.13;;
3573;SDS011;1801;51.050;6.246;2022-08-19T03:19:07;76.83;;;38.40;;
3573;SDS011;1801;51.050;6.246;2022-08-19T03:21:32;88.20;;;40.67;;
3573;SDS011;1801;51.050;6.246;2022-08-19T03:23:59;78.47;;;40.47;;
3573;SDS011;1801;51.050;6.246;2022-08-19T03:26:25;81.30;;;41.93;;
3573;SDS011;1801;51.050;6.246;2022-08-19T03:28:50;77.10;;;39.97;;
3573;SDS011;1801;51.050;6.246;2022-08-19T03:31:16;84.40;;;39.37;;
3573;SDS011;1801;51.050;6.246;2022-08-19T03:33:42;81.87;;;43.30;;
3573;SDS011;1801;51.050;6.246;2022-08-19T03:36:14;87.60;;;42.23;;
3573;SDS011;1801;51.050;6.246;2022-08-19T03:38:43;83.13;;;45.73;;
3573;SDS011;1801;51.050;6.246;2022-08-19T03:41:10;73.47;;;41.23;;
3573;SDS011;1801;51.050;6.246;2022-08-19T03:43:37;90.83;;;43.77;;
3573;SDS011;1801;51.050;6.246;2022-08-19T03:46:03;87.43;;;43.97;;
3573;SDS011;1801;51.050;6.246;2022-08-19T03:48:30;90.23;;;46.77;;
3573;SDS011;1801;51.050;6.246;2022-08-19T03:50:55;92.73;;;44.07;;
3573;SDS011;1801;51.050;6.246;2022-08-19T03:53:21;92.13;;;43.50;;
3573;SDS011;1801;51.050;6.246;2022-08-19T03:55:46;93.17;;;46.47;;
3573;SDS011;1801;51.050;6.246;2022-08-19T03:58:11;91.20;;;44.20;;
3573;SDS011;1801;51.050;6.246;2022-08-19T04:00:37;84.03;;;42.37;;
3573;SDS011;1801;51.050;6.246;2022-08-19T04:03:02;92.23;;;44.70;;
3573;SDS011;1801;51.050;6.246;2022-08-19T04:05:28;90.53;;;42.77;;
3573;SDS011;1801;51.050;6.246;2022-08-19T04:07:53;89.90;;;43.00;;
3573;SDS011;1801;51.050;6.246;2022-08-19T04:10:20;88.33;;;44.27;;
3573;SDS011;1801;51.050;6.246;2022-08-19T04:12:45;94.43;;;44.27;;
3573;SDS011;1801;51.050;6.246;2022-08-19T04:15:11;88.67;;;44.00;;
3573;SDS011;1801;51.050;6.246;2022-08-19T04:17:36;102.63;;;45.60;;
3573;SDS011;1801;51.050;6.246;2022-08-19T04:20:02;94.70;;;44.73;;
3573;SDS011;1801;51.050;6.246;2022-08-19T04:22:27;95.93;;;44.37;;
3573;SDS011;1801;51.050;6.246;2022-08-19T04:24:52;98.57;;;45.67;;
3573;SDS011;1801;51.050;6.246;2022-08-19T04:27:17;93.97;;;45.90;;
3573;SDS011;1801;51.050;6.246;2022-08-19T04:29:42;94.40;;;45.00;;
3573;SDS011;1801;51.050;6.246;2022-08-19T04:32:08;90.80;;;46.80;;
3573;SDS011;1801;51.050;6.246;2022-08-19T04:34:33;98.00;;;45.07;;
3573;SDS011;1801;51.050;6.246;2022-08-19T04:36:59;91.63;;;43.20;;
3573;SDS011;1801;51.050;6.246;2022-08-19T04:39:29;93.07;;;43.80;;
3573;SDS011;1801;51.050;6.246;2022-08-19T04:42:13;93.00;;;44.30;;
3573;SDS011;1801;51.050;6.246;2022-08-19T04:44:57;95.33;;;46.73;;
3573;SDS011;1801;51.050;6.246;2022-08-19T04:47:23;106.60;;;48.30;;
3573;SDS011;1801;51.050;6.246;2022-08-19T04:49:48;105.53;;;49.87;;
3573;SDS011;1801;51.050;6.246;2022-08-19T04:52:14;101.70;;;47.67;;
3573;SDS011;1801;51.050;6.246;2022-08-19T04:54:39;94.53;;;46.77;;
3573;SDS011;1801;51.050;6.246;2022-08-19T04:57:08;102.03;;;46.17;;
3573;SDS011;1801;51.050;6.246;2022-08-19T04:59:35;100.03;;;46.30;;
3573;SDS011;1801;51.050;6.246;2022-08-19T05:02:00;107.87;;;46.77;;
3573;SDS011;1801;51.050;6.246;2022-08-19T05:04:25;102.13;;;46.67;;
3573;SDS011;1801;51.050;6.246;2022-08-19T05:06:50;106.33;;;47.60;;
3573;SDS011;1801;51.050;6.246;2022-08-19T05:09:18;101.57;;;46.30;;
3573;SDS011;1801;51.050;6.246;2022-08-19T05:11:44;106.60;;;46.57;;
3573;SDS011;1801;51.050;6.246;2022-08-19T05:14:09;109.83;;;48.10;;
3573;SDS011;1801;51.050;6.246;2022-08-19T05:16:37;111.43;;;46.17;;
3573;SDS011;1801;51.050;6.246;2022-08-19T05:19:02;107.77;;;49.67;;
3573;SDS011;1801;51.050;6.246;2022-08-19T05:21:46;103.67;;;45.03;;
3573;SDS011;1801;51.050;6.246;2022-08-19T05:24:30;112.00;;;46.40;;
3573;SDS011;1801;51.050;6.246;2022-08-19T05:26:59;108.23;;;46.93;;
3573;SDS011;1801;51.050;6.246;2022-08-19T05:29:26;119.20;;;47.87;;
3573;SDS011;1801;51.050;6.246;2022-08-19T05:31:52;101.00;;;47.10;;
3573;SDS011;1801;51.050;6.246;2022-08-19T05:34:18;113.70;;;47.70;;
3573;SDS011;1801;51.050;6.246;2022-08-19T05:36:47;128.83;;;51.43;;
3573;SDS011;1801;51.050;6.246;2022-08-19T05:39:13;121.90;;;51.50;;
3573;SDS011;1801;51.050;6.246;2022-08-19T05:41:41;118.77;;;51.87;;
3573;SDS011;1801;51.050;6.246;2022-08-19T05:44:06;111.53;;;49.90;;
3573;SDS011;1801;51.050;6.246;2022-08-19T05:46:34;115.07;;;48.90;;
3573;SDS011;1801;51.050;6.246;2022-08-19T05:48:59;114.23;;;47.20;;
3573;SDS011;1801;51.050;6.246;2022-08-19T05:51:25;125.80;;;49.50;;
3573;SDS011;1801;51.050;6.246;2022-08-19T05:53:50;117.90;;;45.67;;
3573;SDS011;1801;51.050;6.246;2022-08-19T05:56:15;114.83;;;50.87;;
3573;SDS011;1801;51.050;6.246;2022-08-19T05:58:41;118.43;;;48.23;;
3573;SDS011;1801;51.050;6.246;2022-08-19T06:01:11;108.23;;;46.67;;
3573;SDS011;1801;51.050;6.246;2022-08-19T06:03:36;133.43;;;51.10;;
3573;SDS011;1801;51.050;6.246;2022-08-19T06:06:02;118.50;;;48.53;;
3573;SDS011;1801;51.050;6.246;2022-08-19T06:08:28;121.13;;;47.47;;
3573;SDS011;1801;51.050;6.246;2022-08-19T06:10:53;128.57;;;49.40;;
3573;SDS011;1801;51.050;6.246;2022-08-19T06:13:19;132.67;;;53.50;;
3573;SDS011;1801;51.050;6.246;2022-08-19T06:15:45;132.30;;;48.77;;
3573;SDS011;1801;51.050;6.246;2022-08-19T06:18:11;126.57;;;48.73;;
3573;SDS011;1801;51.050;6.246;2022-08-19T06:20:36;116.33;;;49.10;;
3573;SDS011;1801;51.050;6.246;2022-08-19T06:23:02;118.70;;;48.77;;
3573;SDS011;1801;51.050;6.246;2022-08-19T06:25:27;121.63;;;48.87;;
3573;SDS011;1801;51.050;6.246;2022-08-19T06:27:52;128.07;;;50.63;;
3573;SDS011;1801;51.050;6.246;2022-08-19T06:30:18;123.00;;;48.80;;
3573;SDS011;1801;51.050;6.246;2022-08-19T06:32:43;134.07;;;51.97;;
3573;SDS011;1801;51.050;6.246;2022-08-19T06:35:09;125.87;;;48.87;;
3573;SDS011;1801;51.050;6.246;2022-08-19T06:37:34;119.63;;;48.87;;
3573;SDS011;1801;51.050;6.246;2022-08-19T06:39:59;114.57;;;46.10;;
3573;SDS011;1801;51.050;6.246;2022-08-19T06:42:24;113.20;;;44.43;;
3573;SDS011;1801;51.050;6.246;2022-08-19T06:44:49;116.60;;;46.70;;
3573;SDS011;1801;51.050;6.246;2022-08-19T06:47:16;123.97;;;48.30;;
3573;SDS011;1801;51.050;6.246;2022-08-19T06:49:41;119.33;;;45.33;;
3573;SDS011;1801;51.050;6.246;2022-08-19T06:52:07;109.90;;;45.20;;
3573;SDS011;1801;51.050;6.246;2022-08-19T06:54:33;102.87;;;40.17;;
3573;SDS011;1801;51.050;6.246;2022-08-19T06:56:59;97.07;;;40.80;;
3573;SDS011;1801;51.050;6.246;2022-08-19T06:59:27;96.50;;;37.87;;
3573;SDS011;1801;51.050;6.246;2022-08-19T07:01:53;85.93;;;37.73;;
3573;SDS011;1801;51.050;6.246;2022-08-19T07:04:19;81.47;;;36.57;;
3573;SDS011;1801;51.050;6.246;2022-08-19T07:06:45;84.13;;;35.80;;
3573;SDS011;1801;51.050;6.246;2022-08-19T07:09:11;79.73;;;33.87;;
3573;SDS011;1801;51.050;6.246;2022-08-19T07:11:37;76.33;;;33.20;;
3573;SDS011;1801;51.050;6.246;2022-08-19T07:14:03;75.27;;;35.03;;
3573;SDS011;1801;51.050;6.246;2022-08-19T07:16:28;73.40;;;34.97;;
3573;SDS011;1801;51.050;6.246;2022-08-19T07:18:53;74.10;;;32.70;;
3573;SDS011;1801;51.050;6.246;2022-08-19T07:21:20;64.90;;;29.30;;
3573;SDS011;1801;51.050;6.246;2022-08-19T07:23:46;62.80;;;30.07;;
3573;SDS011;1801;51.050;6.246;2022-08-19T07:26:16;65.83;;;30.00;;
3573;SDS011;1801;51.050;6.246;2022-08-19T07:28:42;67.70;;;30.90;;
3573;SDS011;1801;51.050;6.246;2022-08-19T07:31:09;59.00;;;27.73;;
3573;SDS011;1801;51.050;6.246;2022-08-19T07:33:34;61.53;;;26.97;;
3573;SDS011;1801;51.050;6.246;2022-08-19T07:36:02;54.33;;;24.93;;
3573;SDS011;1801;51.050;6.246;2022-08-19T07:38:27;50.97;;;24.13;;
3573;SDS011;1801;51.050;6.246;2022-08-19T07:40:52;58.67;;;24.53;;
3573;SDS011;1801;51.050;6.246;2022-08-19T07:43:18;49.70;;;23.60;;
3573;SDS011;1801;51.050;6.246;2022-08-19T07:45:45;47.17;;;23.93;;
3573;SDS011;1801;51.050;6.246;2022-08-19T07:48:12;49.23;;;25.33;;
3573;SDS011;1801;51.050;6.246;2022-08-19T07:50:37;58.20;;;26.10;;
3573;SDS011;1801;51.050;6.246;2022-08-19T07:53:02;48.60;;;23.43;;
3573;SDS011;1801;51.050;6.246;2022-08-19T07:55:28;53.13;;;25.17;;
3573;SDS011;1801;51.050;6.246;2022-08-19T07:57:53;51.87;;;22.87;;
3573;SDS011;1801;51.050;6.246;2022-08-19T08:00:18;46.00;;;23.70;;
3573;SDS011;1801;51.050;6.246;2022-08-19T08:02:44;47.57;;;23.77;;
3573;SDS011;1801;51.050;6.246;2022-08-19T08:05:09;51.47;;;24.10;;
3573;SDS011;1801;51.050;6.246;2022-08-19T08:07:54;44.40;;;21.90;;
3573;SDS011;1801;51.050;6.246;2022-08-19T08:10:37;47.43;;;23.77;;
3573;SDS011;1801;51.050;6.246;2022-08-19T08:13:03;51.53;;;25.00;;
3573;SDS011;1801;51.050;6.246;2022-08-19T08:15:29;55.00;;;24.77;;
3573;SDS011;1801;51.050;6.246;2022-08-19T08:17:55;43.23;;;23.13;;
3573;SDS011;1801;51.050;6.246;2022-08-19T08:20:21;49.23;;;23.40;;
3573;SDS011;1801;51.050;6.246;2022-08-19T08:22:47;47.50;;;23.13;;
3573;SDS011;1801;51.050;6.246;2022-08-19T08:25:31;51.80;;;26.17;;
3573;SDS011;1801;51.050;6.246;2022-08-19T08:27:56;54.43;;;24.10;;
3573;SDS011;1801;51.050;6.246;2022-08-19T08:30:25;55.90;;;26.50;;
3573;SDS011;1801;51.050;6.246;2022-08-19T08:32:50;48.27;;;27.10;;
3573;SDS011;1801;51.050;6.246;2022-08-19T08:35:17;49.47;;;27.07;;
3573;SDS011;1801;51.050;6.246;2022-08-19T08:37:43;49.00;;;25.47;;
3573;SDS011;1801;51.050;6.246;2022-08-19T08:42:36;39.17;;;23.23;;
3573;SDS011;1801;51.050;6.246;2022-08-19T08:45:03;44.90;;;24.80;;
3573;SDS011;1801;51.050;6.246;2022-08-19T08:47:32;42.80;;;23.13;;
3573;SDS011;1801;51.050;6.246;2022-08-19T08:50:03;39.40;;;20.63;;
3573;SDS011;1801;51.050;6.246;2022-08-19T08:52:36;49.73;;;23.60;;
3573;SDS011;1801;51.050;6.246;2022-08-19T08:55:06;41.30;;;22.40;;
3573;SDS011;1801;51.050;6.246;2022-08-19T08:57:36;46.63;;;21.93;;
3573;SDS011;1801;51.050;6.246;2022-08-19T09:00:05;34.57;;;18.47;;
3573;SDS011;1801;51.050;6.246;2022-08-19T09:02:31;32.87;;;18.13;;
3573;SDS011;1801;51.050;6.246;2022-08-19T09:04:57;38.27;;;20.00;;
3573;SDS011;1801;51.050;6.246;2022-08-19T09:12:54;32.87;;;18.47;;
3573;SDS011;1801;51.050;6.246;2022-08-19T09:15:24;37.57;;;19.50;;
3573;SDS011;1801;51.050;6.246;2022-08-19T09:17:52;36.17;;;21.23;;
3573;SDS011;1801;51.050;6.246;2022-08-19T09:20:19;31.90;;;16.87;;
3573;SDS011;1801;51.050;6.246;2022-08-19T09:22:44;29.10;;;17.23;;
3573;SDS011;1801;51.050;6.246;2022-08-19T09:25:11;40.17;;;18.70;;
3573;SDS011;1801;51.050;6.246;2022-08-19T09:27:37;29.60;;;17.87;;
3573;SDS011;1801;51.050;6.246;2022-08-19T09:30:03;34.07;;;16.50;;
3573;SDS011;1801;51.050;6.246;2022-08-19T09:32:29;34.40;;;17.80;;
3573;SDS011;1801;51.050;6.246;2022-08-19T09:34:55;32.27;;;17.27;;
3573;SDS011;1801;51.050;6.246;2022-08-19T09:37:20;30.67;;;17.03;;
3573;SDS011;1801;51.050;6.246;2022-08-19T09:39:46;29.33;;;17.03;;
3573;SDS011;1801;51.050;6.246;2022-08-19T09:42:11;30.27;;;17.50;;
3573;SDS011;1801;51.050;6.246;2022-08-19T09:44:39;33.60;;;16.03;;
3573;SDS011;1801;51.050;6.246;2022-08-19T09:47:05;29.90;;;16.67;;
3573;SDS011;1801;51.050;6.246;2022-08-19T09:49:30;30.57;;;17.53;;
3573;SDS011;1801;51.050;6.246;2022-08-19T09:51:56;30.57;;;18.00;;
3573;SDS011;1801;51.050;6.246;2022-08-19T09:54:21;33.83;;;19.30;;
3573;SDS011;1801;51.050;6.246;2022-08-19T09:56:48;36.67;;;18.07;;
3573;SDS011;1801;51.050;6.246;2022-08-19T09:59:13;29.83;;;16.80;;
3573;SDS011;1801;51.050;6.246;2022-08-19T10:01:38;40.00;;;19.03;;
3573;SDS011;1801;51.050;6.246;2022-08-19T10:04:03;33.83;;;18.80;;
3573;SDS011;1801;51.050;6.246;2022-08-19T10:06:35;36.23;;;19.90;;
3573;SDS011;1801;51.050;6.246;2022-08-19T10:09:02;34.47;;;16.50;;
3573;SDS011;1801;51.050;6.246;2022-08-19T10:11:29;35.43;;;17.27;;
3573;SDS011;1801;51.050;6.246;2022-08-19T10:13:54;30.60;;;17.30;;
3573;SDS011;1801;51.050;6.246;2022-08-19T10:16:21;31.70;;;17.67;;
3573;SDS011;1801;51.050;6.246;2022-08-19T10:18:47;40.43;;;19.77;;
3573;SDS011;1801;51.050;6.246;2022-08-19T10:21:17;39.03;;;21.30;;
3573;SDS011;1801;51.050;6.246;2022-08-19T10:23:44;41.73;;;22.00;;
3573;SDS011;1801;51.050;6.246;2022-08-19T10:26:10;39.00;;;20.20;;
3573;SDS011;1801;51.050;6.246;2022-08-19T10:28:36;36.20;;;19.13;;
3573;SDS011;1801;51.050;6.246;2022-08-19T10:31:05;34.30;;;19.53;;
3573;SDS011;1801;51.050;6.246;2022-08-19T10:33:31;39.10;;;21.50;;
3573;SDS011;1801;51.050;6.246;2022-08-19T10:36:00;39.27;;;19.90;;
3573;SDS011;1801;51.050;6.246;2022-08-19T10:38:25;36.50;;;18.80;;
3573;SDS011;1801;51.050;6.246;2022-08-19T10:40:50;34.70;;;18.50;;
3573;SDS011;1801;51.050;6.246;2022-08-19T10:43:16;29.83;;;17.37;;
3573;SDS011;1801;51.050;6.246;2022-08-19T10:45:42;33.07;;;17.73;;
3573;SDS011;1801;51.050;6.246;2022-08-19T10:48:07;24.70;;;15.80;;
3573;SDS011;1801;51.050;6.246;2022-08-19T10:50:32;27.20;;;16.87;;
3573;SDS011;1801;51.050;6.246;2022-08-19T10:53:16;31.47;;;17.40;;
3573;SDS011;1801;51.050;6.246;2022-08-19T10:55:41;27.93;;;16.47;;
3573;SDS011;1801;51.050;6.246;2022-08-19T10:58:42;27.20;;;15.33;;
3573;SDS011;1801;51.050;6.246;2022-08-19T11:01:07;31.93;;;17.40;;
3573;SDS011;1801;51.050;6.246;2022-08-19T11:03:32;32.07;;;17.97;;
3573;SDS011;1801;51.050;6.246;2022-08-19T11:06:04;31.50;;;19.37;;
3573;SDS011;1801;51.050;6.246;2022-08-19T11:08:30;33.07;;;18.70;;
3573;SDS011;1801;51.050;6.246;2022-08-19T11:10:57;34.27;;;16.77;;
3573;SDS011;1801;51.050;6.246;2022-08-19T11:13:25;29.90;;;16.97;;
3573;SDS011;1801;51.050;6.246;2022-08-19T11:16:00;29.17;;;17.10;;
3573;SDS011;1801;51.050;6.246;2022-08-19T11:18:26;24.60;;;14.10;;
3573;SDS011;1801;51.050;6.246;2022-08-19T11:20:51;25.60;;;15.40;;
3573;SDS011;1801;51.050;6.246;2022-08-19T11:23:17;22.87;;;14.40;;
3573;SDS011;1801;51.050;6.246;2022-08-19T11:25:42;31.30;;;16.70;;
3573;SDS011;1801;51.050;6.246;2022-08-19T11:28:08;29.73;;;16.57;;
3573;SDS011;1801;51.050;6.246;2022-08-19T11:30:33;22.40;;;14.20;;
3573;SDS011;1801;51.050;6.246;2022-08-19T11:32:58;27.17;;;16.20;;
3573;SDS011;1801;51.050;6.246;2022-08-19T11:35:25;26.70;;;16.33;;
3573;SDS011;1801;51.050;6.246;2022-08-19T11:37:51;23.03;;;15.00;;
3573;SDS011;1801;51.050;6.246;2022-08-19T11:40:16;27.00;;;12.80;;
3573;SDS011;1801;51.050;6.246;2022-08-19T11:42:41;19.43;;;12.60;;
3573;SDS011;1801;51.050;6.246;2022-08-19T11:45:22;18.97;;;11.60;;
3573;SDS011;1801;51.050;6.246;2022-08-19T11:47:47;20.30;;;11.40;;
3573;SDS011;1801;51.050;6.246;2022-08-19T11:50:13;20.93;;;12.70;;
3573;SDS011;1801;51.050;6.246;2022-08-19T11:52:39;14.07;;;8.47;;
3573;SDS011;1801;51.050;6.246;2022-08-19T11:55:04;14.43;;;9.27;;
3573;SDS011;1801;51.050;6.246;2022-08-19T11:57:30;14.83;;;10.10;;
3573;SDS011;1801;51.050;6.246;2022-08-19T11:59:55;17.40;;;11.27;;
3573;SDS011;1801;51.050;6.246;2022-08-19T12:02:20;21.13;;;10.30;;
3573;SDS011;1801;51.050;6.246;2022-08-19T12:04:46;17.17;;;11.00;;
3573;SDS011;1801;51.050;6.246;2022-08-19T12:07:12;18.17;;;11.43;;
3573;SDS011;1801;51.050;6.246;2022-08-19T12:09:37;22.10;;;13.00;;
3573;SDS011;1801;51.050;6.246;2022-08-19T12:12:04;20.40;;;11.53;;
3573;SDS011;1801;51.050;6.246;2022-08-19T12:14:29;20.67;;;12.00;;
3573;SDS011;1801;51.050;6.246;2022-08-19T12:16:55;21.87;;;12.37;;
3573;SDS011;1801;51.050;6.246;2022-08-19T12:19:20;21.13;;;11.60;;
3573;SDS011;1801;51.050;6.246;2022-08-19T12:21:46;16.90;;;11.70;;
3573;SDS011;1801;51.050;6.246;2022-08-19T12:24:11;16.67;;;9.83;;
3573;SDS011;1801;51.050;6.246;2022-08-19T12:26:37;14.67;;;9.07;;
3573;SDS011;1801;51.050;6.246;2022-08-19T12:29:02;16.03;;;9.93;;
3573;SDS011;1801;51.050;6.246;2022-08-19T12:31:28;14.50;;;9.00;;
3573;SDS011;1801;51.050;6.246;2022-08-19T12:33:53;13.37;;;7.73;;
3573;SDS011;1801;51.050;6.246;2022-08-19T12:36:19;13.30;;;7.20;;
3573;SDS011;1801;51.050;6.246;2022-08-19T12:38:44;9.93;;;7.47;;
3573;SDS011;1801;51.050;6.246;2022-08-19T12:41:11;13.63;;;8.20;;
3573;SDS011;1801;51.050;6.246;2022-08-19T12:43:37;9.70;;;7.40;;
3573;SDS011;1801;51.050;6.246;2022-08-19T12:46:06;10.60;;;7.20;;
3573;SDS011;1801;51.050;6.246;2022-08-19T12:48:33;10.13;;;6.70;;
3573;SDS011;1801;51.050;6.246;2022-08-19T12:50:58;13.00;;;7.83;;
3573;SDS011;1801;51.050;6.246;2022-08-19T12:53:23;11.90;;;6.87;;
3573;SDS011;1801;51.050;6.246;2022-08-19T12:55:56;18.70;;;7.57;;
3573;SDS011;1801;51.050;6.246;2022-08-19T12:58:22;10.63;;;6.53;;
3573;SDS011;1801;51.050;6.246;2022-08-19T13:00:47;12.63;;;6.80;;
3573;SDS011;1801;51.050;6.246;2022-08-19T13:03:13;10.40;;;6.63;;
3573;SDS011;1801;51.050;6.246;2022-08-19T13:05:39;9.87;;;6.77;;
3573;SDS011;1801;51.050;6.246;2022-08-19T13:08:04;9.37;;;6.57;;
3573;SDS011;1801;51.050;6.246;2022-08-19T13:10:30;13.63;;;5.70;;
3573;SDS011;1801;51.050;6.246;2022-08-19T13:13:00;7.80;;;5.70;;
3573;SDS011;1801;51.050;6.246;2022-08-19T13:15:26;5.93;;;4.60;;
3573;SDS011;1801;51.050;6.246;2022-08-19T13:17:56;8.57;;;4.83;;
3573;SDS011;1801;51.050;6.246;2022-08-19T13:20:22;8.17;;;4.57;;
3573;SDS011;1801;51.050;6.246;2022-08-19T13:22:48;7.87;;;5.10;;
3573;SDS011;1801;51.050;6.246;2022-08-19T13:25:14;6.03;;;4.27;;
3573;SDS011;1801;51.050;6.246;2022-08-19T13:27:41;8.90;;;5.30;;
3573;SDS011;1801;51.050;6.246;2022-08-19T13:30:07;7.23;;;5.00;;
3573;SDS011;1801;51.050;6.246;2022-08-19T13:32:51;7.17;;;5.33;;
3573;SDS011;1801;51.050;6.246;2022-08-19T13:35:35;5.23;;;4.73;;
3573;SDS011;1801;51.050;6.246;2022-08-19T13:38:00;6.03;;;5.40;;
3573;SDS011;1801;51.050;6.246;2022-08-19T13:40:30;6.13;;;5.33;;
3573;SDS011;1801;51.050;6.246;2022-08-19T13:42:58;7.10;;;4.60;;
3573;SDS011;1801;51.050;6.246;2022-08-19T13:45:24;8.13;;;4.87;;
3573;SDS011;1801;51.050;6.246;2022-08-19T13:47:50;8.00;;;5.10;;
3573;SDS011;1801;51.050;6.246;2022-08-19T13:50:16;6.73;;;4.53;;
3573;SDS011;1801;51.050;6.246;2022-08-19T13:52:42;9.07;;;4.43;;
3573;SDS011;1801;51.050;6.246;2022-08-19T13:55:09;9.27;;;5.67;;
3573;SDS011;1801;51.050;6.246;2022-08-19T13:57:34;7.63;;;5.90;;
3573;SDS011;1801;51.050;6.246;2022-08-19T14:00:00;8.07;;;5.40;;
3573;SDS011;1801;51.050;6.246;2022-08-19T14:02:25;7.50;;;5.50;;
3573;SDS011;1801;51.050;6.246;2022-08-19T14:04:51;10.50;;;5.17;;
3573;SDS011;1801;51.050;6.246;2022-08-19T14:07:16;5.83;;;4.87;;
3573;SDS011;1801;51.050;6.246;2022-08-19T14:09:41;8.93;;;4.80;;
3573;SDS011;1801;51.050;6.246;2022-08-19T14:12:07;4.43;;;3.40;;
3573;SDS011;1801;51.050;6.246;2022-08-19T14:14:35;7.00;;;4.00;;
3573;SDS011;1801;51.050;6.246;2022-08-19T14:17:01;7.67;;;4.37;;
3573;SDS011;1801;51.050;6.246;2022-08-19T14:19:26;5.43;;;3.43;;
3573;SDS011;1801;51.050;6.246;2022-08-19T14:21:52;4.00;;;3.20;;
3573;SDS011;1801;51.050;6.246;2022-08-19T14:24:17;6.90;;;4.00;;
3573;SDS011;1801;51.050;6.246;2022-08-19T14:26:42;6.40;;;3.40;;
3573;SDS011;1801;51.050;6.246;2022-08-19T14:29:07;3.90;;;3.40;;
3573;SDS011;1801;51.050;6.246;2022-08-19T14:31:33;4.30;;;3.33;;
3573;SDS011;1801;51.050;6.246;2022-08-19T14:33:58;10.70;;;3.90;;
3573;SDS011;1801;51.050;6.246;2022-08-19T14:36:23;3.93;;;3.30;;
3573;SDS011;1801;51.050;6.246;2022-08-19T14:38:48;4.40;;;3.47;;
3573;SDS011;1801;51.050;6.246;2022-08-19T14:41:18;7.10;;;3.67;;
3573;SDS011;1801;51.050;6.246;2022-08-19T14:43:48;5.97;;;3.87;;
3573;SDS011;1801;51.050;6.246;2022-08-19T14:46:15;24.40;;;5.00;;
3573;SDS011;1801;51.050;6.246;2022-08-19T14:48:41;6.93;;;3.70;;
3573;SDS011;1801;51.050;6.246;2022-08-19T14:51:06;7.57;;;3.87;;
3573;SDS011;1801;51.050;6.246;2022-08-19T14:53:31;5.70;;;3.70;;
3573;SDS011;1801;51.050;6.246;2022-08-19T14:55:58;6.33;;;3.67;;